Overview Statistics Trail Chart Weather Telemetry Raw packets
 

This is the latest recevied weather packets stored in our database for station/object N7IGG. If no packets are shown the sender has not sent any weather packets the latest 10 day(s).

<< 67 68 69 70 71 72 73 >>
Time Temp. Humidity Pressure Rain* Wind** Luminosity Snow
1777697002 13.89° C 79% 1015.9 hPa 0 mm - 0 W/m² -
1777696700 13.89° C 78% 1015.9 hPa 0 mm - 0 W/m² -
1777696397 14.44° C 78% 1015.8 hPa 0 mm - 0 W/m² -
1777696097 14.44° C 78% 1015.7 hPa 0 mm - 0 W/m² -
1777695794 13.89° C 78% 1015.5 hPa 0 mm - 0 W/m² -
1777695492 13.89° C 78% 1015.6 hPa 0 mm - 0 W/m² -
1777695189 13.89° C 77% 1015.6 hPa 0 mm - 0 W/m² -
1777694886 14.44° C 76% 1015.7 hPa 0 mm - 0 W/m² -
1777694583 14.44° C 75% 1015.2 hPa 0 mm - 0 W/m² -
1777694279 14.44° C 74% 1015.2 hPa 0 mm - 0 W/m² -
1777693976 14.44° C 72% 1015.2 hPa 0 mm - 0 W/m² -
1777693673 16.11° C 68% 1015.2 hPa 0 mm - 0 W/m² -
1777693371 17.78° C 60% 1015.3 hPa 0 mm - 0 W/m² -
1777693069 17.78° C 60% 1014.9 hPa 0 mm - 0 W/m² -
1777692766 17.78° C 59% 1015 hPa 0 mm - 0 W/m² -
1777692463 17.78° C 59% 1014.9 hPa 0 mm - 0 W/m² -
1777692159 17.78° C 60% 1014.9 hPa 0 mm - 0 W/m² -
1777691857 17.78° C 60% 1015 hPa 0 mm - 0 W/m² -
1777691555 17.78° C 61% 1014.9 hPa 0 mm - 0 W/m² -
1777691254 17.78° C 61% 1014.9 hPa 0 mm - 2 W/m² -
1777690951 17.78° C 61% 1014.8 hPa 0 mm - 1 W/m² -
1777690648 17.78° C 61% 1014.7 hPa 0 mm - 2 W/m² -
1777690346 17.78° C 61% 1014.8 hPa 0 mm - 5 W/m² -
1777690043 17.78° C 62% 1014.8 hPa 0 mm - 7 W/m² -
1777689741 18.33° C 62% 1014.7 hPa 0 mm - 10 W/m² -

* Rain latest hour (hover to see other rain measurements)
** Current wind speed in m/s (hover to see current wind gust speed)